createdAt,value
2023-02-03T00:01:34.802Z,15.53
2023-02-03T00:04:03.546Z,13.73
2023-02-03T00:06:32.202Z,10.33
2023-02-03T00:09:01.799Z,11.70
2023-02-03T00:11:32.278Z,13.20
2023-02-03T00:14:02.015Z,13.77
2023-02-03T00:16:34.913Z,12.93
2023-02-03T00:19:03.728Z,11.20
2023-02-03T00:21:34.252Z,10.33
2023-02-03T00:24:01.928Z,10.87
2023-02-03T00:26:35.445Z,14.00
2023-02-03T00:29:09.570Z,10.30
2023-02-03T00:31:40.839Z,10.07
2023-02-03T00:34:21.332Z,11.13
2023-02-03T00:36:53.950Z,9.37
2023-02-03T00:39:21.891Z,9.83
2023-02-03T00:41:50.280Z,11.97
2023-02-03T00:44:18.755Z,7.53
2023-02-03T00:46:47.388Z,9.77
2023-02-03T00:49:15.739Z,8.30
2023-02-03T00:51:43.056Z,9.73
2023-02-03T00:54:11.091Z,8.00
2023-02-03T00:56:38.526Z,8.50
2023-02-03T00:59:06.959Z,8.23
2023-02-03T01:01:35.175Z,9.13
2023-02-03T01:04:03.279Z,8.23
2023-02-03T01:06:32.169Z,7.97
2023-02-03T01:09:03.034Z,8.67
2023-02-03T01:11:34.099Z,8.27
2023-02-03T01:14:04.156Z,8.30
2023-02-03T01:19:24.064Z,9.37
2023-02-03T01:22:03.132Z,8.63
2023-02-03T01:24:36.465Z,7.47
2023-02-03T01:27:08.510Z,7.30
2023-02-03T01:29:37.656Z,10.30
2023-02-03T01:32:13.696Z,9.53
2023-02-03T01:34:45.268Z,10.93
2023-02-03T01:37:29.846Z,7.00
2023-02-03T01:39:59.342Z,8.23
2023-02-03T01:42:33.885Z,8.87
2023-02-03T01:45:07.357Z,12.60
2023-02-03T01:47:45.859Z,9.00
2023-02-03T01:50:20.482Z,8.57
2023-02-03T01:52:56.582Z,8.53
2023-02-03T01:55:28.887Z,8.50
2023-02-03T01:58:03.758Z,8.90
2023-02-03T02:00:31.226Z,7.37
2023-02-03T02:02:59.996Z,7.97
2023-02-03T02:05:36.848Z,7.27
2023-02-03T02:08:04.707Z,7.77
2023-02-03T02:10:33.611Z,8.60
2023-02-03T02:13:03.781Z,8.93
2023-02-03T02:15:54.119Z,8.47
2023-02-03T02:18:25.344Z,9.10
2023-02-03T02:20:52.695Z,8.33
2023-02-03T02:23:38.593Z,7.30
2023-02-03T02:26:24.237Z,6.23
2023-02-03T02:28:59.547Z,6.67
2023-02-03T02:31:45.462Z,7.70
2023-02-03T02:34:21.180Z,7.07
2023-02-03T02:37:08.466Z,5.73
2023-02-03T02:39:48.149Z,7.83
2023-02-03T02:42:24.732Z,7.57
2023-02-03T02:44:54.120Z,5.43
2023-02-03T02:47:23.648Z,6.33
2023-02-03T02:49:58.481Z,4.43
2023-02-03T02:52:29.451Z,5.23
2023-02-03T02:55:02.694Z,6.00
2023-02-03T02:57:30.856Z,6.10
2023-02-03T03:00:00.699Z,5.83
2023-02-03T03:02:34.296Z,8.17
2023-02-03T03:05:06.661Z,7.37
2023-02-03T03:07:50.151Z,8.50
2023-02-03T03:10:25.289Z,6.47
2023-02-03T03:12:59.227Z,7.47
2023-02-03T03:15:30.825Z,5.40
2023-02-03T03:18:04.201Z,9.30
2023-02-03T03:20:33.312Z,6.93
2023-02-03T03:23:06.667Z,7.50
2023-02-03T03:25:42.353Z,7.80
2023-02-03T03:28:12.976Z,6.83
2023-02-03T03:30:40.777Z,6.23
2023-02-03T03:33:08.973Z,8.90
2023-02-03T03:35:42.286Z,8.30
2023-02-03T03:38:22.102Z,7.63
2023-02-03T03:40:59.404Z,10.60
2023-02-03T03:43:29.443Z,10.53
2023-02-03T03:46:01.296Z,11.10
2023-02-03T03:48:31.670Z,10.40
2023-02-03T03:51:05.866Z,10.60
2023-02-03T03:53:34.635Z,10.53
2023-02-03T03:56:04.070Z,11.10
2023-02-03T03:58:33.033Z,12.00
2023-02-03T04:01:04.375Z,10.23
2023-02-03T04:03:53.501Z,11.50
2023-02-03T04:06:20.829Z,10.60
2023-02-03T04:08:49.688Z,13.17
2023-02-03T04:11:37.066Z,12.80
2023-02-03T04:14:06.127Z,12.27
2023-02-03T04:16:35.109Z,10.93
2023-02-03T04:19:02.482Z,13.27
2023-02-03T04:21:30.464Z,11.97
2023-02-03T04:23:57.976Z,12.60
2023-02-03T04:26:25.506Z,11.97
2023-02-03T04:28:52.853Z,10.83
2023-02-03T04:31:20.734Z,11.27
2023-02-03T04:33:52.453Z,11.13
2023-02-03T04:36:20.478Z,10.67
2023-02-03T04:38:49.836Z,10.50
2023-02-03T04:41:18.899Z,11.70
2023-02-03T04:43:47.568Z,10.10
2023-02-03T04:46:14.981Z,13.47
2023-02-03T04:48:42.557Z,11.23
2023-02-03T04:51:10.709Z,12.50
2023-02-03T04:53:38.055Z,11.57
2023-02-03T04:56:05.564Z,16.87
2023-02-03T04:58:32.857Z,12.67
2023-02-03T05:01:14.787Z,16.93
2023-02-03T05:03:42.285Z,16.10
2023-02-03T05:06:09.584Z,17.10
2023-02-03T05:08:36.891Z,19.43
2023-02-03T05:11:05.831Z,22.47
2023-02-03T05:13:33.952Z,22.50
2023-02-03T05:16:02.075Z,22.30
2023-02-03T05:18:30.663Z,24.83
2023-02-03T05:21:00.000Z,24.70
2023-02-03T05:23:27.826Z,23.67
2023-02-03T05:25:56.736Z,24.13
2023-02-03T05:28:25.310Z,21.60
2023-02-03T05:30:54.182Z,20.67
2023-02-03T05:33:21.897Z,18.43
2023-02-03T05:35:49.378Z,19.93
2023-02-03T05:38:16.874Z,17.77
2023-02-03T05:41:03.268Z,14.83
2023-02-03T05:43:30.566Z,15.07
2023-02-03T05:46:02.530Z,14.67
2023-02-03T05:48:30.031Z,14.00
2023-02-03T05:50:57.466Z,13.30
2023-02-03T05:53:26.314Z,13.53
2023-02-03T05:55:53.933Z,14.23
2023-02-03T05:58:21.433Z,12.87
2023-02-03T06:00:49.959Z,13.87
2023-02-03T06:03:17.386Z,17.07
2023-02-03T06:05:47.805Z,16.50
2023-02-03T06:08:15.099Z,15.40
2023-02-03T06:10:42.474Z,15.23
2023-02-03T06:13:13.039Z,16.50
2023-02-03T06:15:40.602Z,12.93
2023-02-03T06:18:09.133Z,16.47
2023-02-03T06:20:36.488Z,17.47
2023-02-03T06:23:03.982Z,15.43
2023-02-03T06:25:32.759Z,18.03
2023-02-03T06:28:00.757Z,16.23
2023-02-03T06:30:28.438Z,19.87
2023-02-03T06:32:56.434Z,16.97
2023-02-03T06:35:23.714Z,23.50
2023-02-03T06:37:51.003Z,17.83
2023-02-03T06:40:18.499Z,20.30
2023-02-03T06:42:48.147Z,18.83
2023-02-03T06:45:18.330Z,18.07
2023-02-03T06:47:49.962Z,19.47
2023-02-03T06:50:23.215Z,14.70
2023-02-03T06:52:56.870Z,17.27
2023-02-03T06:58:11.534Z,15.37
2023-02-03T07:00:44.987Z,14.93
2023-02-03T07:05:55.452Z,17.07
2023-02-03T07:08:29.670Z,18.57
2023-02-03T07:11:01.293Z,17.90
2023-02-03T07:13:31.830Z,17.20
2023-02-03T07:16:01.133Z,17.37
2023-02-03T07:18:47.215Z,19.93
2023-02-03T07:21:17.084Z,20.07
2023-02-03T07:23:48.752Z,16.20
2023-02-03T07:26:23.715Z,22.17
2023-02-03T07:28:52.520Z,16.43
2023-02-03T07:31:20.391Z,16.83
2023-02-03T07:33:48.139Z,19.60
2023-02-03T07:36:16.634Z,15.53
2023-02-03T07:38:44.028Z,15.67
2023-02-03T07:41:12.831Z,16.27
2023-02-03T07:43:40.127Z,17.07
2023-02-03T07:46:07.888Z,12.80
2023-02-03T07:48:38.436Z,17.13
2023-02-03T07:51:10.159Z,13.27
2023-02-03T07:53:39.025Z,13.40
2023-02-03T07:56:07.895Z,15.30
2023-02-03T07:58:36.631Z,12.93
2023-02-03T08:01:10.629Z,12.73
2023-02-03T08:03:38.168Z,11.70
2023-02-03T08:06:05.606Z,12.10
2023-02-03T08:08:32.913Z,11.67
2023-02-03T08:11:00.551Z,12.53
2023-02-03T08:13:27.886Z,8.03
2023-02-03T08:15:55.302Z,12.03
2023-02-03T08:18:22.745Z,10.93
2023-02-03T08:20:50.794Z,12.70
2023-02-03T08:23:18.544Z,10.65
2023-02-03T08:25:45.852Z,12.67
2023-02-03T08:28:13.810Z,11.10
2023-02-03T08:30:41.197Z,11.90
2023-02-03T08:33:08.564Z,13.00
2023-02-03T08:35:36.434Z,10.60
2023-02-03T08:38:05.111Z,10.37
2023-02-03T08:40:33.164Z,11.17
2023-02-03T08:43:01.152Z,12.37
2023-02-03T08:45:28.518Z,11.13
2023-02-03T08:47:56.393Z,12.30
2023-02-03T08:50:24.423Z,11.90
2023-02-03T08:52:51.855Z,11.97
2023-02-03T08:55:19.461Z,11.53
2023-02-03T08:57:46.809Z,12.50
2023-02-03T09:00:15.795Z,12.17
2023-02-03T09:02:59.492Z,12.27
2023-02-03T09:05:29.945Z,9.47
2023-02-03T09:07:58.080Z,13.17
2023-02-03T09:10:28.189Z,9.50
2023-02-03T09:13:01.491Z,12.37
2023-02-03T09:15:36.221Z,11.07
2023-02-03T09:18:08.710Z,12.20
2023-02-03T09:20:38.413Z,13.43
2023-02-03T09:23:05.966Z,10.33
2023-02-03T09:25:35.562Z,11.07
2023-02-03T09:28:06.625Z,8.80
2023-02-03T09:30:36.825Z,9.33
2023-02-03T09:33:09.909Z,8.33
2023-02-03T09:35:38.760Z,8.47
2023-02-03T09:38:07.087Z,9.97
2023-02-03T09:41:09.535Z,11.23
2023-02-03T09:43:43.296Z,10.53
2023-02-03T09:46:14.258Z,7.87
2023-02-03T09:48:44.354Z,7.60
2023-02-03T09:51:19.836Z,8.63
2023-02-03T09:53:51.398Z,8.77
2023-02-03T09:56:25.362Z,7.33
2023-02-03T09:58:52.971Z,6.50
2023-02-03T10:01:25.718Z,7.37
2023-02-03T10:04:08.997Z,10.03
2023-02-03T10:06:42.878Z,8.27
2023-02-03T10:09:10.205Z,8.63
2023-02-03T10:11:55.781Z,6.80
2023-02-03T10:14:31.329Z,5.23
2023-02-03T10:17:01.797Z,5.10
2023-02-03T10:19:39.803Z,8.40
2023-02-03T10:22:08.534Z,8.60
2023-02-03T10:24:41.805Z,7.87
2023-02-03T10:27:19.953Z,5.77
2023-02-03T10:29:48.834Z,8.90
2023-02-03T10:32:16.362Z,5.10
2023-02-03T10:34:45.799Z,6.70
2023-02-03T10:37:19.062Z,6.77
2023-02-03T10:39:46.475Z,5.27
2023-02-03T10:42:14.138Z,9.17
2023-02-03T10:44:44.203Z,7.23
2023-02-03T10:47:16.358Z,5.83
2023-02-03T10:49:43.821Z,9.13
2023-02-03T10:52:24.844Z,11.03
2023-02-03T10:54:54.325Z,8.90
2023-02-03T10:57:23.423Z,5.53
2023-02-03T10:59:51.924Z,4.43
2023-02-03T11:02:42.825Z,7.97
2023-02-03T11:05:11.202Z,4.77
2023-02-03T11:07:39.090Z,7.13
2023-02-03T11:10:29.044Z,5.37
2023-02-03T11:13:19.723Z,7.77
2023-02-03T11:16:05.655Z,5.07
2023-02-03T11:18:40.886Z,7.03
2023-02-03T11:21:15.936Z,4.50
2023-02-03T11:23:46.656Z,5.93
2023-02-03T11:26:15.527Z,8.63
2023-02-03T11:28:44.795Z,5.77
2023-02-03T11:31:19.562Z,6.00
2023-02-03T11:33:52.078Z,6.00
2023-02-03T11:36:19.473Z,7.07
2023-02-03T11:38:46.838Z,6.43
2023-02-03T11:41:23.881Z,6.53
2023-02-03T11:43:57.894Z,6.17
2023-02-03T11:46:25.354Z,6.77
2023-02-03T11:49:06.823Z,8.97
2023-02-03T11:51:41.294Z,5.67
2023-02-03T11:54:14.729Z,5.03
2023-02-03T11:56:52.437Z,6.13
2023-02-03T11:59:24.656Z,5.13
2023-02-03T12:02:10.842Z,5.37
2023-02-03T12:04:38.529Z,6.30
2023-02-03T12:07:06.290Z,9.97
2023-02-03T12:09:42.374Z,6.03
2023-02-03T12:12:10.041Z,6.27
2023-02-03T12:14:52.412Z,6.57
2023-02-03T12:17:32.111Z,7.57
2023-02-03T12:20:14.901Z,7.27
2023-02-03T12:22:45.857Z,6.23
2023-02-03T12:25:32.198Z,6.63
2023-02-03T12:28:07.173Z,6.17
2023-02-03T12:30:38.211Z,8.40
2023-02-03T12:33:12.669Z,6.77
2023-02-03T12:35:46.322Z,6.27
2023-02-03T12:38:13.750Z,7.80
2023-02-03T12:40:52.816Z,7.43
2023-02-03T12:43:38.497Z,4.90
2023-02-03T12:46:11.906Z,6.67
2023-02-03T12:48:46.151Z,8.10
2023-02-03T12:51:16.596Z,7.83
2023-02-03T12:53:49.024Z,7.13
2023-02-03T12:56:19.185Z,6.40
2023-02-03T12:58:58.342Z,12.40
2023-02-03T13:01:48.721Z,6.70
2023-02-03T13:04:28.385Z,9.77
2023-02-03T13:07:08.713Z,8.57
2023-02-03T13:09:41.585Z,8.13
2023-02-03T13:12:11.609Z,11.50
2023-02-03T13:14:45.754Z,10.50
2023-02-03T13:17:23.789Z,8.13
2023-02-03T13:19:55.850Z,10.23
2023-02-03T13:22:25.866Z,6.80
2023-02-03T13:25:01.807Z,8.07
2023-02-03T13:27:49.000Z,9.40
2023-02-03T13:30:32.993Z,8.93
2023-02-03T13:33:20.344Z,8.03
2023-02-03T13:36:19.262Z,7.07
2023-02-03T13:39:08.088Z,9.17
2023-02-03T13:42:13.655Z,9.70
2023-02-03T13:44:43.287Z,11.17
2023-02-03T13:47:18.922Z,11.47
2023-02-03T13:49:50.191Z,11.33
2023-02-03T13:52:36.119Z,9.93
2023-02-03T13:55:04.780Z,11.23
2023-02-03T13:57:36.952Z,11.83
2023-02-03T14:00:31.129Z,11.10
2023-02-03T14:02:59.138Z,11.20
2023-02-03T14:05:45.457Z,16.47
2023-02-03T14:08:28.277Z,11.93
2023-02-03T14:11:14.979Z,16.17
2023-02-03T14:13:45.935Z,14.17
2023-02-03T14:16:30.253Z,14.50
2023-02-03T14:18:57.950Z,14.40
2023-02-03T14:21:38.340Z,15.20
2023-02-03T14:24:14.134Z,12.70
2023-02-03T14:26:49.735Z,14.93
2023-02-03T14:29:30.667Z,18.67
2023-02-03T14:32:05.787Z,15.63
2023-02-03T14:34:50.556Z,15.97
2023-02-03T14:37:28.216Z,14.93
2023-02-03T14:40:15.571Z,15.00
2023-02-03T14:42:49.423Z,13.50
2023-02-03T14:45:28.388Z,15.80
2023-02-03T14:48:11.384Z,16.50
2023-02-03T14:50:58.221Z,17.27
2023-02-03T14:53:25.650Z,19.13
2023-02-03T14:55:53.042Z,15.37
2023-02-03T14:58:33.979Z,19.63
2023-02-03T15:01:04.187Z,19.80
2023-02-03T15:03:31.849Z,20.17
2023-02-03T15:06:03.879Z,21.60
2023-02-03T15:08:31.582Z,19.10
2023-02-03T15:10:59.004Z,19.83
2023-02-03T15:13:30.372Z,20.50
2023-02-03T15:16:02.189Z,19.47
2023-02-03T15:18:32.732Z,16.77
2023-02-03T15:21:01.843Z,18.50
2023-02-03T15:23:43.365Z,21.50
2023-02-03T15:26:15.454Z,19.90
2023-02-03T15:28:43.301Z,22.57
2023-02-03T15:31:29.254Z,18.47
2023-02-03T15:34:10.706Z,21.20
2023-02-03T15:36:48.522Z,21.37
2023-02-03T15:39:18.553Z,27.50
2023-02-03T15:41:46.029Z,25.63
2023-02-03T15:44:20.476Z,27.50
2023-02-03T15:46:52.986Z,30.13
2023-02-03T15:49:26.372Z,27.60
2023-02-03T15:52:14.479Z,24.30
2023-02-03T15:54:45.710Z,25.70
2023-02-03T15:57:34.536Z,20.87
2023-02-03T16:00:28.071Z,21.10
2023-02-03T16:02:58.184Z,20.57
2023-02-03T16:05:30.288Z,19.87
2023-02-03T16:08:19.466Z,22.40
2023-02-03T16:10:47.313Z,23.60
2023-02-03T16:13:32.935Z,23.50
2023-02-03T16:16:02.772Z,22.93
2023-02-03T16:18:30.635Z,22.63
2023-02-03T16:21:04.115Z,25.67
2023-02-03T16:23:31.701Z,22.40
2023-02-03T16:26:08.287Z,24.50
2023-02-03T16:28:55.844Z,22.87
2023-02-03T16:31:42.326Z,24.37
2023-02-03T16:34:39.115Z,27.53
2023-02-03T16:41:15.773Z,25.37
2023-02-03T16:44:03.321Z,28.47
2023-02-03T16:46:52.320Z,28.97
2023-02-03T16:49:40.259Z,34.07
2023-02-03T16:52:08.891Z,28.20
2023-02-03T16:54:40.554Z,33.70
2023-02-03T16:57:08.169Z,30.53
2023-02-03T16:59:35.850Z,30.50
2023-02-03T17:02:03.253Z,29.83
2023-02-03T17:04:30.731Z,28.77
2023-02-03T17:06:59.211Z,30.10
2023-02-03T17:09:45.523Z,30.27
2023-02-03T17:12:14.217Z,29.50
2023-02-03T17:14:42.393Z,31.33
2023-02-03T17:17:18.819Z,32.70
2023-02-03T17:19:46.286Z,31.47
2023-02-03T17:22:13.605Z,31.37
2023-02-03T17:24:42.294Z,30.13
2023-02-03T17:27:11.262Z,26.67
2023-02-03T17:29:39.059Z,25.73
2023-02-03T17:32:06.874Z,28.77
2023-02-03T17:34:35.138Z,25.77
2023-02-03T17:37:02.559Z,28.17
2023-02-03T17:55:43.526Z,27.93
2023-02-03T17:58:11.118Z,29.30
2023-02-03T18:00:40.088Z,30.70
2023-02-03T18:03:08.461Z,32.23
2023-02-03T18:05:38.714Z,32.83
2023-02-03T18:08:16.158Z,32.50
2023-02-03T18:10:44.432Z,33.07
2023-02-03T18:13:11.830Z,34.43
2023-02-03T18:15:44.532Z,39.20
2023-02-03T18:18:13.377Z,33.73
2023-02-03T18:20:40.695Z,33.27
2023-02-03T18:23:08.213Z,34.13
2023-02-03T18:25:36.080Z,31.27
2023-02-03T18:28:04.420Z,35.73
2023-02-03T18:30:32.219Z,38.43
2023-02-03T18:33:10.998Z,37.20
2023-02-03T18:35:39.933Z,39.93
2023-02-03T18:38:10.225Z,41.47
2023-02-03T18:40:40.943Z,41.90
2023-02-03T18:43:11.942Z,47.90
2023-02-03T18:45:42.360Z,47.60
2023-02-03T18:48:13.406Z,48.03
2023-02-03T18:50:43.000Z,51.60
2023-02-03T18:53:11.688Z,48.13
2023-02-03T18:55:43.587Z,48.30
2023-02-03T18:58:15.480Z,52.60
2023-02-03T19:00:43.887Z,50.97
2023-02-03T19:06:04.665Z,49.50
2023-02-03T19:08:34.156Z,50.60
2023-02-03T19:11:01.445Z,47.13
2023-02-03T19:13:31.448Z,51.07
2023-02-03T19:16:04.528Z,50.47
2023-02-03T19:18:33.319Z,45.17
2023-02-03T19:21:00.594Z,41.67
2023-02-03T19:23:27.912Z,41.60
2023-02-03T19:25:56.905Z,42.00
2023-02-03T19:28:30.941Z,39.33
2023-02-03T19:31:07.944Z,40.27
2023-02-03T19:33:37.543Z,39.30
2023-02-03T19:36:06.118Z,37.37
2023-02-03T19:38:33.539Z,45.03
2023-02-03T19:41:05.206Z,34.67
2023-02-03T19:43:34.076Z,37.97
2023-02-03T19:46:04.391Z,35.37
2023-02-03T19:48:35.515Z,38.17
2023-02-03T19:51:05.192Z,38.27
2023-02-03T19:53:33.644Z,36.33
2023-02-03T19:56:01.425Z,33.83
2023-02-03T19:58:34.132Z,35.00
2023-02-03T20:01:14.405Z,36.07
2023-02-03T20:03:44.129Z,32.70
2023-02-03T20:06:13.480Z,36.60
2023-02-03T20:08:43.777Z,34.60
2023-02-03T20:11:15.971Z,35.40
2023-02-03T20:13:43.500Z,33.43
2023-02-03T20:16:10.877Z,32.77
2023-02-03T20:18:38.214Z,35.93
2023-02-03T20:21:05.681Z,37.37
2023-02-03T20:23:33.227Z,36.90
2023-02-03T20:26:00.527Z,34.70
2023-02-03T20:28:32.771Z,34.67
2023-02-03T20:31:02.529Z,34.87
2023-02-03T20:33:31.138Z,34.40
2023-02-03T20:36:05.291Z,35.27
2023-02-03T20:38:32.663Z,38.73
2023-02-03T20:41:01.428Z,35.37
2023-02-03T20:43:29.597Z,39.67
2023-02-03T20:45:56.886Z,35.97
2023-02-03T20:48:29.212Z,35.63
2023-02-03T20:50:56.967Z,32.90
2023-02-03T20:53:26.288Z,33.60
2023-02-03T20:56:01.637Z,31.23
2023-02-03T20:58:31.446Z,35.40
2023-02-03T21:01:01.097Z,37.90
2023-02-03T21:03:48.590Z,33.00
2023-02-03T21:06:18.836Z,34.73
2023-02-03T21:08:50.461Z,34.77
2023-02-03T21:11:22.910Z,33.70
2023-02-03T21:13:58.853Z,32.83
2023-02-03T21:17:22.653Z,36.13
2023-02-03T21:19:58.002Z,36.10
2023-02-03T21:22:33.485Z,35.93
2023-02-03T21:25:03.284Z,39.23
2023-02-03T21:27:33.854Z,38.70
2023-02-03T21:30:02.770Z,34.70
2023-02-03T21:32:41.464Z,36.80
2023-02-03T21:35:38.086Z,40.00
2023-02-03T21:38:24.075Z,36.10
2023-02-03T21:40:51.387Z,39.27
2023-02-03T21:43:18.979Z,38.50
2023-02-03T21:45:47.805Z,39.37
2023-02-03T21:48:26.390Z,36.20
2023-02-03T21:51:00.464Z,33.60
2023-02-03T21:53:29.474Z,34.67
2023-02-03T21:56:00.691Z,34.27
2023-02-03T21:58:37.641Z,36.53
2023-02-03T22:01:17.432Z,34.13
2023-02-03T22:03:47.791Z,31.37
2023-02-03T22:06:28.481Z,31.00
2023-02-03T22:08:58.772Z,33.47
2023-02-03T22:11:27.623Z,32.33
2023-02-03T22:13:59.638Z,30.07
2023-02-03T22:16:29.275Z,35.10
2023-02-03T22:18:57.691Z,33.00
2023-02-03T22:21:25.359Z,30.93
2023-02-03T22:23:52.840Z,30.23
2023-02-03T22:26:22.258Z,33.70
2023-02-03T22:28:49.584Z,31.60
2023-02-03T22:31:17.593Z,31.50
2023-02-03T22:33:45.078Z,30.77
2023-02-03T22:36:14.930Z,30.53
2023-02-03T22:38:45.183Z,28.97
2023-02-03T22:41:13.481Z,30.03
2023-02-03T22:43:43.717Z,31.30
2023-02-03T22:46:11.181Z,28.13
2023-02-03T22:48:39.211Z,23.27
2023-02-03T22:51:08.453Z,25.63
2023-02-03T22:53:37.181Z,27.10
2023-02-03T22:56:04.785Z,26.30
2023-02-03T22:58:35.498Z,24.90
2023-02-03T23:01:04.253Z,23.87
2023-02-03T23:03:33.567Z,24.63
2023-02-03T23:06:02.588Z,26.33
2023-02-03T23:08:29.961Z,22.30
2023-02-03T23:10:59.713Z,24.60
2023-02-03T23:13:31.118Z,25.33
2023-02-03T23:15:58.740Z,23.53
2023-02-03T23:18:29.050Z,23.83
2023-02-03T23:20:56.500Z,26.50
2023-02-03T23:23:24.163Z,22.40
2023-02-03T23:25:51.741Z,19.17
2023-02-03T23:28:20.978Z,22.27
2023-02-03T23:30:52.095Z,22.70
2023-02-03T23:33:26.735Z,21.50
2023-02-03T23:36:03.865Z,21.73
2023-02-03T23:38:33.846Z,23.07
2023-02-03T23:41:04.236Z,23.97
2023-02-03T23:43:35.982Z,26.27
2023-02-03T23:48:56.879Z,25.40
2023-02-03T23:51:37.848Z,25.00
2023-02-03T23:54:14.536Z,24.63
2023-02-03T23:56:53.933Z,22.13
2023-02-03T23:59:23.109Z,24.27
